Time;durP1;ratioP1;P1;durP2;ratioP2;P2;SDS_P1;SDS_P2;PMS_P1;PMS_P2;Temp;Humidity;BMP_temperature;BMP_pressure;BME280_temperature;BME280_humidity;BME280_pressure;Samples;Min_cycle;Max_cycle;Signal;HPM_P1;HPM_P2
2021/08/13 00:00:40;;;;;;;6.88;3.58;;;;;;;;;;5014103;28;20389;-73
2021/08/13 00:03:06;;;;;;;4.65;3.30;;;;;;;;;;5013745;28;20045;-73
2021/08/13 00:05:31;;;;;;;6.85;3.05;;;;;;;;;;5013502;28;20042;-73
2021/08/13 00:07:57;;;;;;;4.00;3.53;;;;;;;;;;5013628;28;20030;-73
2021/08/13 00:10:23;;;;;;;6.70;3.58;;;;;;;;;;5013793;28;20030;-73
2021/08/13 00:12:48;;;;;;;5.63;3.50;;;;;;;;;;5013042;28;20037;-74
2021/08/13 00:15:14;;;;;;;8.00;3.72;;;;;;;;;;5013077;28;20037;-73
2021/08/13 00:17:39;;;;;;;5.90;3.40;;;;;;;;;;5013465;28;20033;-73
2021/08/13 00:20:05;;;;;;;4.40;3.38;;;;;;;;;;5011000;28;20038;-73
2021/08/13 00:22:31;;;;;;;6.03;3.85;;;;;;;;;;5013310;28;20132;-74
2021/08/13 00:24:56;;;;;;;7.78;4.18;;;;;;;;;;5013504;28;20108;-73
2021/08/13 00:27:22;;;;;;;5.95;4.20;;;;;;;;;;5013250;28;20109;-74
2021/08/13 00:29:47;;;;;;;7.38;4.40;;;;;;;;;;5013208;28;20033;-73
2021/08/13 00:32:13;;;;;;;6.15;4.20;;;;;;;;;;5013075;28;21230;-73
2021/08/13 00:34:39;;;;;;;6.18;3.90;;;;;;;;;;5013414;28;20083;-73
2021/08/13 00:37:05;;;;;;;5.30;3.80;;;;;;;;;;5013162;28;20022;-73
2021/08/13 00:39:30;;;;;;;5.35;3.88;;;;;;;;;;5012810;28;20034;-73
2021/08/13 00:41:56;;;;;;;5.90;4.40;;;;;;;;;;5012713;28;20033;-74
2021/08/13 00:44:22;;;;;;;7.40;4.15;;;;;;;;;;4996730;28;20040;-73
2021/08/13 00:46:47;;;;;;;6.13;3.90;;;;;;;;;;5012629;28;20065;-73
2021/08/13 00:49:13;;;;;;;4.55;3.72;;;;;;;;;;4995562;28;20122;-73
2021/08/13 00:51:38;;;;;;;5.90;4.20;;;;;;;;;;5012590;28;20383;-73
2021/08/13 00:54:04;;;;;;;5.40;4.70;;;;;;;;;;5012803;28;20086;-73
2021/08/13 00:56:30;;;;;;;5.70;4.63;;;;;;;;;;5012713;28;20495;-73
2021/08/13 00:58:55;;;;;;;6.03;4.00;;;;;;;;;;5013008;28;20030;-73
2021/08/13 01:01:21;;;;;;;5.95;3.70;;;;;;;;;;5012862;28;20037;-74
2021/08/13 01:03:46;;;;;;;5.28;4.40;;;;;;;;;;5011646;28;20489;-73
2021/08/13 01:06:17;;;;;;;8.40;3.85;;;;;;;;;;5012047;28;20104;-73
2021/08/13 01:08:43;;;;;;;4.65;4.00;;;;;;;;;;5010510;28;20039;-73
2021/08/13 01:11:17;;;;;;;6.57;4.43;;;;;;;;;;5013062;28;20025;-73
2021/08/13 01:13:55;;;;;;;4.82;4.00;;;;;;;;;;5012342;28;20040;-74
2021/08/13 01:16:21;;;;;;;6.75;4.50;;;;;;;;;;5011693;28;20025;-74
2021/08/13 01:19:02;;;;;;;6.50;4.50;;;;;;;;;;5012423;28;20025;-74
2021/08/13 01:21:53;;;;;;;8.75;4.50;;;;;;;;;;5012403;28;20030;-73
2021/08/13 01:24:21;;;;;;;9.07;4.93;;;;;;;;;;5011302;28;20495;-73
2021/08/13 01:27:01;;;;;;;8.50;4.45;;;;;;;;;;5012008;28;20083;-73
2021/08/13 01:29:53;;;;;;;7.07;5.18;;;;;;;;;;5011868;28;20018;-73
2021/08/13 01:32:32;;;;;;;6.30;4.82;;;;;;;;;;5012198;28;20026;-73
2021/08/13 01:35:02;;;;;;;6.28;4.25;;;;;;;;;;5012543;28;20018;-73
2021/08/13 01:37:30;;;;;;;6.65;4.38;;;;;;;;;;5011949;28;20041;-73
2021/08/13 01:39:59;;;;;;;5.97;4.50;;;;;;;;;;5011930;28;20036;-73
2021/08/13 01:42:26;;;;;;;6.40;4.47;;;;;;;;;;5011490;28;20041;-74
2021/08/13 01:44:56;;;;;;;6.88;4.70;;;;;;;;;;5012305;28;20042;-73
2021/08/13 01:47:22;;;;;;;8.85;4.70;;;;;;;;;;5005792;28;20382;-73
2021/08/13 01:49:48;;;;;;;7.28;5.15;;;;;;;;;;4996827;28;20030;-72
2021/08/13 01:52:14;;;;;;;6.55;4.88;;;;;;;;;;5009730;28;20100;-72
2021/08/13 01:54:40;;;;;;;6.30;4.88;;;;;;;;;;5011162;28;20466;-72
2021/08/13 01:57:05;;;;;;;8.27;5.60;;;;;;;;;;5011834;28;20029;-73
2021/08/13 01:59:35;;;;;;;6.53;4.93;;;;;;;;;;5011699;28;20054;-72
2021/08/13 02:02:00;;;;;;;6.68;5.45;;;;;;;;;;5011569;28;20029;-73
2021/08/13 02:04:26;;;;;;;8.57;5.97;;;;;;;;;;5011134;28;20568;-72
2021/08/13 02:06:52;;;;;;;6.85;5.78;;;;;;;;;;5011580;28;20033;-72
2021/08/13 02:09:20;;;;;;;7.72;5.82;;;;;;;;;;5012209;28;20026;-72
2021/08/13 02:11:46;;;;;;;6.80;5.10;;;;;;;;;;5011586;28;20362;-72
2021/08/13 02:14:12;;;;;;;10.18;5.35;;;;;;;;;;5011469;28;20034;-73
2021/08/13 02:16:41;;;;;;;6.78;5.80;;;;;;;;;;5011195;28;20029;-73
2021/08/13 02:19:12;;;;;;;7.90;6.00;;;;;;;;;;4991094;28;20034;-73
2021/08/13 02:21:40;;;;;;;8.55;5.18;;;;;;;;;;5006783;28;20486;-73
2021/08/13 02:24:06;;;;;;;7.68;5.72;;;;;;;;;;5011465;28;20029;-73
2021/08/13 02:26:31;;;;;;;6.60;5.38;;;;;;;;;;5010687;28;20048;-73
2021/08/13 02:28:57;;;;;;;6.35;5.10;;;;;;;;;;5011260;28;20022;-73
2021/08/13 02:31:22;;;;;;;9.63;5.68;;;;;;;;;;5011496;28;20149;-73
2021/08/13 02:33:49;;;;;;;8.43;5.38;;;;;;;;;;5011075;28;20041;-74
2021/08/13 02:36:17;;;;;;;9.40;5.43;;;;;;;;;;5010929;28;20091;-73
2021/08/13 02:38:58;;;;;;;8.50;5.30;;;;;;;;;;5010742;28;20037;-73
2021/08/13 02:41:24;;;;;;;7.93;4.97;;;;;;;;;;5010392;28;20378;-73
2021/08/13 02:44:10;;;;;;;6.20;5.03;;;;;;;;;;5010867;28;20030;-73
2021/08/13 02:46:45;;;;;;;5.75;4.75;;;;;;;;;;5008646;28;20042;-72
2021/08/13 02:49:13;;;;;;;6.82;4.75;;;;;;;;;;5011150;28;20026;-73
2021/08/13 02:51:40;;;;;;;8.60;5.40;;;;;;;;;;5010011;28;20033;-73
2021/08/13 02:54:07;;;;;;;8.25;5.47;;;;;;;;;;5011122;28;20022;-73
2021/08/13 02:56:36;;;;;;;7.93;5.25;;;;;;;;;;5010658;28;20029;-73
2021/08/13 02:59:05;;;;;;;5.97;4.43;;;;;;;;;;5010956;28;20099;-72
2021/08/13 03:01:36;;;;;;;5.70;4.45;;;;;;;;;;5010333;28;20058;-72
2021/08/13 03:04:07;;;;;;;7.97;5.20;;;;;;;;;;5003768;28;20038;-72
2021/08/13 03:06:35;;;;;;;9.00;5.90;;;;;;;;;;5009185;28;20489;-72
2021/08/13 03:09:01;;;;;;;11.95;6.03;;;;;;;;;;5010817;28;20033;-73
2021/08/13 03:11:28;;;;;;;7.80;6.07;;;;;;;;;;5010750;28;20026;-72
2021/08/13 03:13:54;;;;;;;8.68;5.65;;;;;;;;;;5010628;28;20038;-72
2021/08/13 03:16:19;;;;;;;8.68;5.65;;;;;;;;;;5010114;28;20275;-72
2021/08/13 03:18:45;;;;;;;7.18;5.45;;;;;;;;;;5010607;28;20387;-73
2021/08/13 03:21:11;;;;;;;8.20;5.38;;;;;;;;;;5010772;28;20025;-72
2021/08/13 03:23:38;;;;;;;7.75;5.55;;;;;;;;;;5010396;28;20033;-72
2021/08/13 03:26:04;;;;;;;10.25;5.72;;;;;;;;;;5009984;28;20033;-72
2021/08/13 03:28:29;;;;;;;5.78;4.90;;;;;;;;;;5010484;28;20152;-72
2021/08/13 03:30:55;;;;;;;7.55;5.32;;;;;;;;;;5004950;28;20060;-73
2021/08/13 03:33:22;;;;;;;7.20;5.22;;;;;;;;;;5012898;28;20033;-73
2021/08/13 03:35:49;;;;;;;6.10;4.93;;;;;;;;;;5014452;28;20049;-72
2021/08/13 03:38:14;;;;;;;7.55;5.00;;;;;;;;;;5014041;28;20465;-72
2021/08/13 03:40:40;;;;;;;7.15;5.72;;;;;;;;;;5014160;28;20029;-72
2021/08/13 03:43:06;;;;;;;10.38;5.30;;;;;;;;;;5014450;28;20109;-72
2021/08/13 03:45:32;;;;;;;8.30;5.72;;;;;;;;;;5014270;28;20113;-72
2021/08/13 03:47:57;;;;;;;6.15;5.13;;;;;;;;;;5014144;28;20105;-72
2021/08/13 03:50:23;;;;;;;10.07;5.57;;;;;;;;;;4996674;28;20033;-72
2021/08/13 03:52:48;;;;;;;15.35;5.20;;;;;;;;;;5014125;28;20026;-73
2021/08/13 03:55:15;;;;;;;7.45;5.22;;;;;;;;;;5014047;28;20021;-72
2021/08/13 03:57:41;;;;;;;8.02;5.35;;;;;;;;;;5013739;28;20033;-73
2021/08/13 04:00:09;;;;;;;5.88;4.53;;;;;;;;;;5014162;28;20117;-72
2021/08/13 04:02:34;;;;;;;7.97;4.00;;;;;;;;;;5013710;28;20080;-73
2021/08/13 04:05:00;;;;;;;5.40;3.97;;;;;;;;;;5012870;28;20514;-72
2021/08/13 04:07:25;;;;;;;8.23;3.83;;;;;;;;;;5013785;28;20029;-72
2021/08/13 04:09:51;;;;;;;6.40;4.03;;;;;;;;;;5013755;28;20033;-72
2021/08/13 04:12:16;;;;;;;4.70;3.90;;;;;;;;;;5013822;28;20040;-72
2021/08/13 04:14:42;;;;;;;7.10;4.38;;;;;;;;;;5013554;28;20080;-72
2021/08/13 04:17:07;;;;;;;7.38;4.25;;;;;;;;;;5013611;28;20113;-72
2021/08/13 04:19:33;;;;;;;4.85;4.13;;;;;;;;;;5013619;28;20029;-72
2021/08/13 04:21:58;;;;;;;8.48;4.40;;;;;;;;;;5013544;28;20409;-72
2021/08/13 04:24:24;;;;;;;10.32;7.10;;;;;;;;;;5012888;28;20018;-72
2021/08/13 04:26:49;;;;;;;5.60;4.78;;;;;;;;;;5013252;28;20052;-73
2021/08/13 04:29:15;;;;;;;7.53;5.30;;;;;;;;;;5013966;28;20025;-73
2021/08/13 04:31:40;;;;;;;7.40;5.13;;;;;;;;;;5013462;28;20373;-72
2021/08/13 04:34:06;;;;;;;11.48;5.30;;;;;;;;;;5013244;28;20048;-73
2021/08/13 04:36:32;;;;;;;4.97;4.47;;;;;;;;;;5012600;28;20030;-73
2021/08/13 04:38:58;;;;;;;7.13;4.50;;;;;;;;;;5013727;28;20024;-72
2021/08/13 04:41:23;;;;;;;7.45;4.97;;;;;;;;;;5012596;28;20030;-72
2021/08/13 04:43:48;;;;;;;8.18;4.82;;;;;;;;;;5012073;28;20026;-73
2021/08/13 04:46:14;;;;;;;7.88;5.07;;;;;;;;;;5013511;28;20022;-72
2021/08/13 04:48:40;;;;;;;9.43;5.25;;;;;;;;;;5013225;28;20033;-73
2021/08/13 04:51:05;;;;;;;7.65;5.13;;;;;;;;;;5014576;28;20143;-73
2021/08/13 04:53:31;;;;;;;7.25;5.30;;;;;;;;;;5013765;28;20402;-73
2021/08/13 04:55:56;;;;;;;7.80;5.70;;;;;;;;;;5013492;28;20057;-73
2021/08/13 04:58:22;;;;;;;7.57;5.10;;;;;;;;;;5013727;28;20037;-73
2021/08/13 05:00:48;;;;;;;6.70;5.40;;;;;;;;;;5013509;28;20084;-73
2021/08/13 05:03:14;;;;;;;6.82;5.85;;;;;;;;;;5013763;28;20037;-73
2021/08/13 05:05:41;;;;;;;9.57;5.13;;;;;;;;;;5013087;28;20478;-73
2021/08/13 05:08:07;;;;;;;5.53;4.90;;;;;;;;;;5013637;28;20474;-73
2021/08/13 05:10:34;;;;;;;6.85;4.85;;;;;;;;;;5013653;28;20105;-73
2021/08/13 05:12:59;;;;;;;6.68;4.88;;;;;;;;;;5012189;28;20109;-73
2021/08/13 05:15:24;;;;;;;6.57;5.15;;;;;;;;;;5012721;28;20445;-73
2021/08/13 05:17:50;;;;;;;6.93;5.28;;;;;;;;;;4994930;28;20152;-73
2021/08/13 05:20:16;;;;;;;8.05;5.18;;;;;;;;;;5012798;28;20060;-73
2021/08/13 05:22:41;;;;;;;8.63;5.40;;;;;;;;;;5012328;28;20057;-73
2021/08/13 05:25:10;;;;;;;6.15;5.55;;;;;;;;;;5009809;28;20026;-73
2021/08/13 05:27:36;;;;;;;6.57;5.18;;;;;;;;;;5012253;28;20022;-73
2021/08/13 05:30:02;;;;;;;9.80;5.57;;;;;;;;;;5012805;28;20085;-73
2021/08/13 05:32:29;;;;;;;5.57;4.97;;;;;;;;;;5012117;28;20398;-73
2021/08/13 05:34:54;;;;;;;7.82;5.53;;;;;;;;;;5011848;28;20025;-73
2021/08/13 05:37:20;;;;;;;9.40;5.18;;;;;;;;;;5012290;28;20156;-74
2021/08/13 05:39:45;;;;;;;7.10;5.28;;;;;;;;;;5012405;28;20183;-73
2021/08/13 05:42:11;;;;;;;6.20;5.47;;;;;;;;;;5016958;28;20044;-73
2021/08/13 05:44:37;;;;;;;6.72;5.35;;;;;;;;;;5018666;28;20357;-73
2021/08/13 05:47:03;;;;;;;6.93;6.05;;;;;;;;;;5012312;28;20042;-73
2021/08/13 05:49:29;;;;;;;8.25;6.43;;;;;;;;;;5012460;28;20076;-73
2021/08/13 05:51:54;;;;;;;7.72;5.90;;;;;;;;;;5008377;28;20041;-73
2021/08/13 05:54:19;;;;;;;6.45;5.75;;;;;;;;;;5011108;28;20037;-73
2021/08/13 05:56:45;;;;;;;9.85;6.50;;;;;;;;;;5011704;28;20041;-73
2021/08/13 05:59:10;;;;;;;6.60;5.88;;;;;;;;;;5012243;28;20025;-73
2021/08/13 06:01:36;;;;;;;8.05;5.15;;;;;;;;;;5011451;28;20022;-73
2021/08/13 06:04:03;;;;;;;6.97;5.05;;;;;;;;;;5011555;28;20026;-72
2021/08/13 06:06:28;;;;;;;7.13;4.82;;;;;;;;;;5011246;28;20030;-73
2021/08/13 06:08:54;;;;;;;6.75;4.70;;;;;;;;;;5011304;28;20048;-73
2021/08/13 06:11:20;;;;;;;7.65;5.10;;;;;;;;;;5011650;28;20486;-73
2021/08/13 06:13:45;;;;;;;7.13;4.80;;;;;;;;;;5008905;28;20032;-73
2021/08/13 06:16:11;;;;;;;6.28;4.72;;;;;;;;;;5011420;28;20079;-73
2021/08/13 06:18:37;;;;;;;5.20;4.05;;;;;;;;;;5012327;28;20106;-74
2021/08/13 06:21:02;;;;;;;6.18;4.95;;;;;;;;;;5012593;28;20037;-73
2021/08/13 06:23:28;;;;;;;7.60;4.53;;;;;;;;;;5011895;28;20386;-73
2021/08/13 06:25:54;;;;;;;7.15;4.30;;;;;;;;;;5011739;28;20083;-74
2021/08/13 06:28:19;;;;;;;6.97;4.63;;;;;;;;;;5013431;28;20439;-73
2021/08/13 06:30:45;;;;;;;9.07;4.88;;;;;;;;;;5011742;28;20029;-73
2021/08/13 06:33:10;;;;;;;8.10;5.47;;;;;;;;;;5010253;28;20391;-73
2021/08/13 06:35:36;;;;;;;5.90;4.57;;;;;;;;;;5011559;28;20026;-74
2021/08/13 06:38:01;;;;;;;7.70;4.40;;;;;;;;;;5010954;28;20033;-74
2021/08/13 06:40:31;;;;;;;5.57;4.55;;;;;;;;;;5012023;28;20026;-73
2021/08/13 06:42:56;;;;;;;5.22;4.47;;;;;;;;;;5012120;28;20454;-73
2021/08/13 06:45:23;;;;;;;6.68;4.15;;;;;;;;;;5010305;28;21504;-73
2021/08/13 06:47:49;;;;;;;5.40;3.85;;;;;;;;;;4993561;28;20369;-74
2021/08/13 06:50:14;;;;;;;7.75;3.60;;;;;;;;;;5011038;28;20034;-73
2021/08/13 06:52:40;;;;;;;6.25;3.50;;;;;;;;;;5002065;28;20025;-73
2021/08/13 06:55:08;;;;;;;5.63;3.47;;;;;;;;;;5000940;28;20041;-73
2021/08/13 06:57:34;;;;;;;5.65;3.30;;;;;;;;;;5010669;28;20064;-73
2021/08/13 07:00:27;;;;;;;4.03;3.08;;;;;;;;;;5010784;28;20064;-73
2021/08/13 07:02:52;;;;;;;4.93;2.90;;;;;;;;;;4999244;28;20234;-72
2021/08/13 07:05:18;;;;;;;7.72;2.72;;;;;;;;;;5009781;28;20125;-73
2021/08/13 07:07:43;;;;;;;5.15;2.63;;;;;;;;;;5009239;28;20029;-74
2021/08/13 07:10:10;;;;;;;5.03;3.08;;;;;;;;;;5010130;28;20539;-73
2021/08/13 07:12:37;;;;;;;5.30;2.67;;;;;;;;;;5010169;28;20081;-74
2021/08/13 07:15:07;;;;;;;6.43;3.10;;;;;;;;;;5010652;28;20029;-73
2021/08/13 07:17:34;;;;;;;4.65;2.80;;;;;;;;;;5014237;28;20545;-73
2021/08/13 07:20:00;;;;;;;4.35;2.92;;;;;;;;;;5012387;28;20104;-73
2021/08/13 07:22:25;;;;;;;5.13;2.97;;;;;;;;;;5010021;28;20101;-73
2021/08/13 07:24:50;;;;;;;4.88;2.72;;;;;;;;;;5010737;28;20083;-74
2021/08/13 07:27:16;;;;;;;5.40;2.90;;;;;;;;;;5008121;28;20112;-73
2021/08/13 07:29:41;;;;;;;5.35;2.78;;;;;;;;;;5010332;28;20176;-74
2021/08/13 07:32:07;;;;;;;3.55;2.78;;;;;;;;;;5010889;28;20034;-74
2021/08/13 07:34:33;;;;;;;4.22;3.00;;;;;;;;;;5011577;28;20444;-74
2021/08/13 07:36:58;;;;;;;3.65;2.85;;;;;;;;;;5014138;28;20053;-73
2021/08/13 07:39:24;;;;;;;5.35;2.97;;;;;;;;;;5025836;28;20152;-73
2021/08/13 07:41:49;;;;;;;3.38;2.85;;;;;;;;;;5012507;28;20022;-73
2021/08/13 07:44:15;;;;;;;4.60;2.80;;;;;;;;;;5010233;28;20022;-77
2021/08/13 07:46:40;;;;;;;4.65;2.90;;;;;;;;;;5014674;28;20033;-76
2021/08/13 07:49:06;;;;;;;5.10;2.80;;;;;;;;;;5010797;28;20553;-74
2021/08/13 07:51:32;;;;;;;4.00;2.72;;;;;;;;;;5010996;28;20018;-76
2021/08/13 07:53:58;;;;;;;4.57;2.80;;;;;;;;;;5027988;28;20021;-77
2021/08/13 07:56:23;;;;;;;3.67;3.03;;;;;;;;;;5019785;28;20034;-78
2021/08/13 07:58:49;;;;;;;5.10;2.92;;;;;;;;;;5009523;28;20026;-74
2021/08/13 08:01:15;;;;;;;4.35;3.10;;;;;;;;;;5011964;28;20113;-74
2021/08/13 08:03:40;;;;;;;6.43;2.83;;;;;;;;;;5013124;28;20030;-74
2021/08/13 08:06:06;;;;;;;5.85;3.45;;;;;;;;;;5013454;28;20458;-74
2021/08/13 08:08:31;;;;;;;3.83;2.58;;;;;;;;;;4994895;28;20019;-74
2021/08/13 08:10:57;;;;;;;26.27;3.97;;;;;;;;;;5010414;28;20108;-74
2021/08/13 08:13:22;;;;;;;4.60;2.95;;;;;;;;;;5011006;28;20032;-74
2021/08/13 08:15:48;;;;;;;5.30;2.88;;;;;;;;;;5010658;28;20053;-74
2021/08/13 08:18:14;;;;;;;3.60;2.28;;;;;;;;;;5011844;28;20084;-73
2021/08/13 08:20:40;;;;;;;2.20;2.00;;;;;;;;;;5014303;28;20108;-73
2021/08/13 08:23:06;;;;;;;3.22;1.80;;;;;;;;;;5013061;28;20109;-74
2021/08/13 08:25:32;;;;;;;3.28;2.20;;;;;;;;;;5012818;28;20478;-76
2021/08/13 08:27:58;;;;;;;28.73;3.22;;;;;;;;;;5013135;28;20085;-75
2021/08/13 08:30:24;;;;;;;2.40;2.08;;;;;;;;;;5012623;28;20053;-75
2021/08/13 08:32:50;;;;;;;4.35;1.98;;;;;;;;;;5016076;28;20567;-75
2021/08/13 08:35:15;;;;;;;2.33;1.75;;;;;;;;;;5013488;28;20032;-76
2021/08/13 08:37:58;;;;;;;2.30;1.80;;;;;;;;;;5020022;28;20033;-75
2021/08/13 08:40:27;;;;;;;3.65;1.83;;;;;;;;;;5006415;28;20023;-76
2021/08/13 08:42:58;;;;;;;3.15;1.90;;;;;;;;;;5014142;28;20030;-77
2021/08/13 08:45:29;;;;;;;3.20;2.00;;;;;;;;;;5014321;28;20112;-76
2021/08/13 08:48:09;;;;;;;2.20;1.80;;;;;;;;;;4994840;28;20157;-77
2021/08/13 08:50:39;;;;;;;2.65;1.80;;;;;;;;;;4996004;28;20513;-75
2021/08/13 08:53:28;;;;;;;4.10;2.00;;;;;;;;;;5013468;28;20105;-76
2021/08/13 08:55:55;;;;;;;2.10;1.75;;;;;;;;;;5012477;28;20088;-76
2021/08/13 08:58:22;;;;;;;3.05;1.80;;;;;;;;;;5013230;28;20034;-76
2021/08/13 09:00:49;;;;;;;3.40;1.75;;;;;;;;;;5012558;28;21727;-77
2021/08/13 09:03:16;;;;;;;3.72;1.98;;;;;;;;;;5012791;28;20544;-77
2021/08/13 09:05:44;;;;;;;2.47;1.88;;;;;;;;;;5010827;28;20377;-76
2021/08/13 09:08:09;;;;;;;3.00;2.00;;;;;;;;;;5013359;28;20021;-76
2021/08/13 09:10:35;;;;;;;3.35;1.77;;;;;;;;;;5012681;28;20405;-76
2021/08/13 09:13:05;;;;;;;4.25;2.10;;;;;;;;;;4995009;28;20030;-77
2021/08/13 09:15:33;;;;;;;3.55;2.20;;;;;;;;;;5014601;28;20026;-76
2021/08/13 09:18:17;;;;;;;3.22;2.30;;;;;;;;;;5011013;28;20037;-76
2021/08/13 09:20:53;;;;;;;3.67;1.98;;;;;;;;;;5012808;28;20072;-76
2021/08/13 09:23:40;;;;;;;3.63;2.25;;;;;;;;;;5014104;28;20018;-77
2021/08/13 09:26:09;;;;;;;3.15;2.42;;;;;;;;;;5009689;28;20112;-76
2021/08/13 09:28:41;;;;;;;2.63;2.00;;;;;;;;;;5011796;28;20097;-75
2021/08/13 09:31:34;;;;;;;2.60;1.83;;;;;;;;;;5012315;28;20091;-75
2021/08/13 09:34:13;;;;;;;88.68;6.72;;;;;;;;;;5003182;28;20038;-75
2021/08/13 09:36:51;;;;;;;5.68;2.63;;;;;;;;;;5016885;28;20377;-75
2021/08/13 09:39:23;;;;;;;2.78;2.05;;;;;;;;;;5013211;28;20033;-75
2021/08/13 09:41:54;;;;;;;2.58;1.90;;;;;;;;;;5015122;28;20033;-76
2021/08/13 09:44:27;;;;;;;4.53;2.20;;;;;;;;;;5016059;28;20045;-76
2021/08/13 09:47:01;;;;;;;5.30;2.20;;;;;;;;;;5012940;28;20052;-75
2021/08/13 09:49:29;;;;;;;4.05;2.08;;;;;;;;;;5012622;28;20458;-75
2021/08/13 09:51:55;;;;;;;3.50;1.90;;;;;;;;;;5013074;28;20359;-75
2021/08/13 09:54:28;;;;;;;3.00;1.75;;;;;;;;;;5013170;28;20036;-74
2021/08/13 09:57:05;;;;;;;5.75;1.90;;;;;;;;;;5006549;28;20093;-75
2021/08/13 09:59:31;;;;;;;2.65;1.92;;;;;;;;;;5012242;28;20385;-75
2021/08/13 10:01:56;;;;;;;3.42;2.03;;;;;;;;;;5012749;28;20026;-76
2021/08/13 10:04:41;;;;;;;3.78;1.83;;;;;;;;;;5013881;28;20065;-74
2021/08/13 10:07:07;;;;;;;3.83;2.33;;;;;;;;;;5012438;28;20037;-75
2021/08/13 10:09:33;;;;;;;3.33;2.20;;;;;;;;;;5012708;28;20021;-74
2021/08/13 10:12:01;;;;;;;1.92;1.73;;;;;;;;;;5012774;28;20036;-75
2021/08/13 10:14:33;;;;;;;16.88;9.57;;;;;;;;;;5011703;28;20493;-75
2021/08/13 10:17:13;;;;;;;2.63;1.63;;;;;;;;;;5012086;28;20061;-74
2021/08/13 10:19:46;;;;;;;2.13;1.83;;;;;;;;;;5012071;28;20029;-75
2021/08/13 10:22:12;;;;;;;2.90;1.73;;;;;;;;;;5011162;28;20448;-76
2021/08/13 10:24:39;;;;;;;3.00;1.83;;;;;;;;;;5012038;28;20026;-75
2021/08/13 10:27:06;;;;;;;4.65;2.13;;;;;;;;;;5011121;28;20088;-75
2021/08/13 10:29:32;;;;;;;5.07;1.70;;;;;;;;;;5011357;28;20064;-76
2021/08/13 10:31:59;;;;;;;1.85;1.50;;;;;;;;;;5011103;28;20038;-75
2021/08/13 10:34:25;;;;;;;4.05;1.90;;;;;;;;;;5011822;28;20029;-76
2021/08/13 10:36:51;;;;;;;4.45;1.70;;;;;;;;;;5011712;28;20038;-75
2021/08/13 10:39:22;;;;;;;2.65;1.63;;;;;;;;;;5010930;28;20040;-75
2021/08/13 10:41:52;;;;;;;3.00;1.70;;;;;;;;;;5009955;28;20030;-75
2021/08/13 10:44:22;;;;;;;2.42;1.80;;;;;;;;;;4993050;28;20029;-75
2021/08/13 10:46:52;;;;;;;2.65;1.63;;;;;;;;;;5004249;28;20468;-75
2021/08/13 10:49:20;;;;;;;3.42;1.70;;;;;;;;;;5011428;28;20109;-75
2021/08/13 10:52:00;;;;;;;2.72;1.50;;;;;;;;;;5014518;28;20512;-75
2021/08/13 10:54:37;;;;;;;2.47;1.70;;;;;;;;;;5011551;28;20025;-74
2021/08/13 10:57:03;;;;;;;2.72;1.60;;;;;;;;;;5011251;28;20068;-75
2021/08/13 10:59:53;;;;;;;2.97;1.80;;;;;;;;;;5011397;28;20041;-75
2021/08/13 11:02:19;;;;;;;3.33;1.73;;;;;;;;;;4998852;28;20148;-76
2021/08/13 11:04:47;;;;;;;2.60;1.90;;;;;;;;;;5010984;28;20045;-76
2021/08/13 11:07:13;;;;;;;3.28;2.30;;;;;;;;;;5011410;28;20058;-75
2021/08/13 11:09:41;;;;;;;2.10;1.60;;;;;;;;;;5012082;28;20079;-76
2021/08/13 11:12:07;;;;;;;3.25;1.60;;;;;;;;;;5016700;28;22001;-75
2021/08/13 11:14:48;;;;;;;2.78;1.60;;;;;;;;;;5013854;28;20067;-76
2021/08/13 11:17:44;;;;;;;44.13;5.35;;;;;;;;;;5010724;28;20026;-76
2021/08/13 11:20:12;;;;;;;4.70;1.45;;;;;;;;;;5013916;28;20026;-75
2021/08/13 11:22:38;;;;;;;2.60;1.40;;;;;;;;;;5017413;28;20034;-76
2021/08/13 11:25:12;;;;;;;4.10;1.48;;;;;;;;;;5011410;28;20042;-75
2021/08/13 11:27:38;;;;;;;2.67;1.50;;;;;;;;;;5010804;28;20029;-76
2021/08/13 11:30:41;;;;;;;1.60;1.40;;;;;;;;;;5010298;28;20097;-76
2021/08/13 11:33:25;;;;;;;2.95;1.40;;;;;;;;;;5006409;28;20037;-76
2021/08/13 11:35:51;;;;;;;13.80;2.20;;;;;;;;;;5010748;28;20421;-75
2021/08/13 11:38:42;;;;;;;101.18;8.88;;;;;;;;;;5006610;28;20034;-76
2021/08/13 11:41:23;;;;;;;2.72;1.30;;;;;;;;;;5011534;28;20137;-75
2021/08/13 11:43:49;;;;;;;3.42;1.38;;;;;;;;;;5011781;28;20462;-75
2021/08/13 11:46:28;;;;;;;5.65;1.52;;;;;;;;;;5008088;28;20034;-77
2021/08/13 11:48:57;;;;;;;4.30;2.08;;;;;;;;;;4999950;28;20465;-76
2021/08/13 11:51:25;;;;;;;3.63;1.77;;;;;;;;;;5010207;28;20367;-76
2021/08/13 11:53:51;;;;;;;1.70;1.40;;;;;;;;;;5013999;28;20030;-74
2021/08/13 11:56:28;;;;;;;3.30;1.40;;;;;;;;;;5015466;28;20104;-75
2021/08/13 11:59:05;;;;;;;3.70;2.20;;;;;;;;;;5014600;28;20040;-76
2021/08/13 12:01:50;;;;;;;3.78;1.70;;;;;;;;;;5015216;28;20116;-77
2021/08/13 12:04:23;;;;;;;3.90;1.60;;;;;;;;;;5013331;28;20042;-76
2021/08/13 12:07:21;;;;;;;3.80;1.95;;;;;;;;;;5006403;28;20417;-77
2021/08/13 12:09:47;;;;;;;4.70;2.10;;;;;;;;;;4971254;28;20044;-77
2021/08/13 12:12:14;;;;;;;3.95;2.03;;;;;;;;;;5010951;28;20030;-76
2021/08/13 12:14:48;;;;;;;3.40;2.10;;;;;;;;;;5014909;28;20067;-76
2021/08/13 12:17:14;;;;;;;3.42;2.00;;;;;;;;;;5014472;28;20040;-76
2021/08/13 12:19:40;;;;;;;2.67;1.90;;;;;;;;;;5014158;28;20124;-76
2021/08/13 12:22:07;;;;;;;5.65;2.17;;;;;;;;;;5014225;28;20109;-75
2021/08/13 12:24:36;;;;;;;3.95;1.90;;;;;;;;;;4997416;28;20025;-76
2021/08/13 12:27:07;;;;;;;3.63;2.50;;;;;;;;;;5014660;28;20469;-75
2021/08/13 12:29:36;;;;;;;3.42;2.28;;;;;;;;;;5014315;28;20026;-77
2021/08/13 12:32:04;;;;;;;4.72;2.20;;;;;;;;;;5014553;28;20250;-76
2021/08/13 12:34:32;;;;;;;3.67;2.38;;;;;;;;;;5014229;28;20462;-76
2021/08/13 12:37:03;;;;;;;5.05;2.47;;;;;;;;;;5012260;28;20666;-75
2021/08/13 12:39:30;;;;;;;3.55;2.30;;;;;;;;;;5010048;28;20112;-76
2021/08/13 12:41:56;;;;;;;3.50;2.28;;;;;;;;;;5013799;28;20033;-75
2021/08/13 12:44:22;;;;;;;4.85;2.55;;;;;;;;;;5014198;28;20099;-76
2021/08/13 12:46:48;;;;;;;3.30;2.13;;;;;;;;;;5013794;28;20037;-77
2021/08/13 12:49:18;;;;;;;3.22;2.15;;;;;;;;;;5014063;28;20034;-76
2021/08/13 12:51:44;;;;;;;5.70;2.22;;;;;;;;;;5014346;28;20555;-75
2021/08/13 12:54:33;;;;;;;4.03;2.28;;;;;;;;;;5014399;28;20034;-74
2021/08/13 12:56:59;;;;;;;3.75;2.10;;;;;;;;;;5013992;28;20022;-76
2021/08/13 12:59:33;;;;;;;6.50;2.53;;;;;;;;;;5014178;28;20022;-76
2021/08/13 13:01:58;;;;;;;3.13;2.17;;;;;;;;;;5014409;28;20117;-76
2021/08/13 13:04:39;;;;;;;7.03;2.47;;;;;;;;;;5013092;28;20133;-75
2021/08/13 13:07:07;;;;;;;5.10;2.60;;;;;;;;;;5013964;28;20030;-75
2021/08/13 13:09:35;;;;;;;6.05;2.60;;;;;;;;;;5013675;28;20029;-75
2021/08/13 13:12:15;;;;;;;3.42;2.38;;;;;;;;;;5014170;28;20432;-75
2021/08/13 13:14:42;;;;;;;8.30;2.42;;;;;;;;;;5013825;28;20017;-76
2021/08/13 13:17:10;;;;;;;6.22;2.88;;;;;;;;;;5013776;28;20442;-75
2021/08/13 13:19:36;;;;;;;4.57;2.70;;;;;;;;;;5014122;28;20474;-75
2021/08/13 13:22:22;;;;;;;4.63;2.60;;;;;;;;;;5014064;28;20029;-76
2021/08/13 13:25:09;;;;;;;3.55;2.50;;;;;;;;;;5013770;28;20036;-76
2021/08/13 13:27:57;;;;;;;4.22;2.83;;;;;;;;;;5014034;28;20050;-76
2021/08/13 13:30:42;;;;;;;6.03;2.72;;;;;;;;;;5013738;28;20477;-75
2021/08/13 13:33:12;;;;;;;5.28;2.63;;;;;;;;;;5013604;28;20470;-76
2021/08/13 13:35:42;;;;;;;3.70;2.72;;;;;;;;;;5013814;28;20018;-75
2021/08/13 13:38:09;;;;;;;7.97;2.90;;;;;;;;;;5012848;28;20025;-76
2021/08/13 13:40:36;;;;;;;3.53;2.42;;;;;;;;;;5013455;28;20045;-76
2021/08/13 13:43:02;;;;;;;6.15;2.70;;;;;;;;;;5013358;28;20084;-76
2021/08/13 13:45:28;;;;;;;6.53;2.90;;;;;;;;;;5013670;28;20065;-76
2021/08/13 13:47:55;;;;;;;5.88;2.92;;;;;;;;;;5013626;28;20112;-76
2021/08/13 13:50:22;;;;;;;4.80;3.15;;;;;;;;;;5013376;28;20089;-75
2021/08/13 13:52:48;;;;;;;5.53;2.90;;;;;;;;;;5013351;28;20028;-75
2021/08/13 13:55:14;;;;;;;4.45;3.15;;;;;;;;;;5013235;28;20037;-75
2021/08/13 13:57:40;;;;;;;4.03;2.92;;;;;;;;;;4995803;28;20022;-75
2021/08/13 14:00:08;;;;;;;6.32;3.45;;;;;;;;;;5012844;28;20017;-74
2021/08/13 14:02:38;;;;;;;6.22;3.33;;;;;;;;;;5013351;28;20084;-75
2021/08/13 14:05:08;;;;;;;5.22;3.47;;;;;;;;;;5013019;28;20641;-74
2021/08/13 14:07:43;;;;;;;4.60;3.15;;;;;;;;;;5013033;28;20064;-75
2021/08/13 14:10:11;;;;;;;7.10;3.60;;;;;;;;;;5012750;28;20036;-74
2021/08/13 14:12:37;;;;;;;6.22;3.60;;;;;;;;;;5013241;28;20026;-75
2021/08/13 14:15:04;;;;;;;7.60;3.78;;;;;;;;;;5012741;28;20034;-75
2021/08/13 14:17:30;;;;;;;4.75;3.80;;;;;;;;;;5012837;28;20030;-75
2021/08/13 14:19:55;;;;;;;5.28;3.47;;;;;;;;;;5012729;28;20083;-75
2021/08/13 14:22:20;;;;;;;5.85;3.22;;;;;;;;;;5012945;28;20030;-75
2021/08/13 14:24:46;;;;;;;7.72;3.63;;;;;;;;;;4995252;28;20025;-75
2021/08/13 14:27:11;;;;;;;5.60;3.42;;;;;;;;;;5012800;28;20030;-75
2021/08/13 14:29:37;;;;;;;6.75;3.30;;;;;;;;;;5012491;28;20022;-76
2021/08/13 14:32:03;;;;;;;4.70;3.20;;;;;;;;;;5012582;28;20021;-75
2021/08/13 14:34:28;;;;;;;5.05;3.15;;;;;;;;;;5012836;28;20030;-75
2021/08/13 14:36:54;;;;;;;4.60;3.35;;;;;;;;;;5012265;28;20061;-75
2021/08/13 14:39:19;;;;;;;5.80;3.20;;;;;;;;;;4994814;28;20034;-75
2021/08/13 14:41:47;;;;;;;28.38;6.50;;;;;;;;;;5012391;28;20034;-75
2021/08/13 14:44:12;;;;;;;3.47;2.88;;;;;;;;;;5012508;28;20088;-75
2021/08/13 14:46:38;;;;;;;5.80;3.20;;;;;;;;;;5012593;28;20037;-75
2021/08/13 14:49:03;;;;;;;7.75;3.30;;;;;;;;;;5012343;28;20026;-75
2021/08/13 14:51:29;;;;;;;4.88;3.42;;;;;;;;;;5012464;28;20029;-75